createdAt,value
2018-08-31T00:00:15.311Z,39.36
2018-08-31T00:01:15.318Z,39.36
2018-08-31T00:02:15.325Z,39.45
2018-08-31T00:03:15.333Z,39.94
2018-08-31T00:04:15.340Z,39.45
2018-08-31T00:05:15.346Z,40.03
2018-08-31T00:06:15.354Z,39.74
2018-08-31T00:07:15.362Z,39.36
2018-08-31T00:08:15.368Z,39.45
2018-08-31T00:09:15.380Z,39.65
2018-08-31T00:10:15.383Z,39.45
2018-08-31T00:11:15.389Z,39.74
2018-08-31T00:12:15.396Z,39.65
2018-08-31T00:13:15.403Z,39.94
2018-08-31T00:14:15.411Z,39.74
2018-08-31T00:15:15.418Z,39.74
2018-08-31T00:16:15.424Z,39.74
2018-08-31T00:17:15.431Z,39.65
2018-08-31T00:18:15.439Z,39.36
2018-08-31T00:19:15.445Z,39.65
2018-08-31T00:20:15.454Z,39.65
2018-08-31T00:21:15.461Z,39.74
2018-08-31T00:22:15.468Z,39.65
2018-08-31T00:23:15.475Z,39.84
2018-08-31T00:24:15.484Z,39.65
2018-08-31T00:25:15.488Z,39.74
2018-08-31T00:26:15.495Z,39.84
2018-08-31T00:27:15.502Z,39.65
2018-08-31T00:28:15.509Z,39.65
2018-08-31T00:29:15.523Z,39.65
2018-08-31T00:30:15.524Z,39.74
2018-08-31T00:31:15.530Z,39.65
2018-08-31T00:32:15.538Z,39.65
2018-08-31T00:33:15.544Z,39.74
2018-08-31T00:34:15.552Z,39.65
2018-08-31T00:35:15.559Z,39.55
2018-08-31T00:36:15.567Z,39.55
2018-08-31T00:37:15.572Z,39.74
2018-08-31T00:38:15.580Z,39.65
2018-08-31T00:39:15.587Z,39.65
2018-08-31T00:40:15.596Z,39.65
2018-08-31T00:41:15.606Z,39.65
2018-08-31T00:42:15.632Z,39.74
2018-08-31T00:43:15.616Z,39.55
2018-08-31T00:44:15.623Z,39.36
2018-08-31T00:45:15.629Z,39.55
2018-08-31T00:46:15.633Z,39.84
2018-08-31T00:47:15.644Z,39.65
2018-08-31T00:48:15.651Z,39.65
2018-08-31T00:49:15.658Z,39.94
2018-08-31T00:50:15.664Z,39.65
2018-08-31T00:51:15.672Z,39.65
2018-08-31T00:52:15.679Z,39.55
2018-08-31T00:53:15.685Z,39.74
2018-08-31T00:54:15.694Z,39.65
2018-08-31T00:55:15.700Z,39.65
2018-08-31T00:56:15.707Z,39.55
2018-08-31T00:57:15.714Z,39.65
2018-08-31T00:58:15.749Z,39.55
2018-08-31T00:59:15.733Z,39.84
2018-08-31T01:00:15.737Z,39.94
2018-08-31T01:01:15.755Z,39.65
2018-08-31T01:02:15.750Z,39.74
2018-08-31T01:03:15.757Z,39.55
2018-08-31T01:04:15.766Z,39.74
2018-08-31T01:05:15.772Z,39.55
2018-08-31T01:06:15.780Z,39.84
2018-08-31T01:07:15.786Z,39.74
2018-08-31T01:08:15.796Z,39.65
2018-08-31T01:09:15.799Z,39.36
2018-08-31T01:10:15.810Z,39.45
2018-08-31T01:11:15.823Z,39.55
2018-08-31T01:12:15.821Z,39.84
2018-08-31T01:13:15.828Z,39.55
2018-08-31T01:14:15.835Z,39.55
2018-08-31T01:15:15.843Z,39.26
2018-08-31T01:16:15.850Z,39.36
2018-08-31T01:17:15.856Z,39.26
2018-08-31T01:18:15.870Z,39.36
2018-08-31T01:19:15.871Z,39.84
2018-08-31T01:20:15.878Z,39.74
2018-08-31T01:21:15.910Z,39.55
2018-08-31T01:22:15.892Z,39.55
2018-08-31T01:23:15.899Z,39.36
2018-08-31T01:24:15.906Z,39.26
2018-08-31T01:25:15.913Z,39.45
2018-08-31T01:26:15.920Z,39.94
2018-08-31T01:27:15.928Z,39.65
2018-08-31T01:28:15.937Z,39.84
2018-08-31T01:29:15.942Z,39.26
2018-08-31T01:30:15.951Z,39.16
2018-08-31T01:31:15.956Z,39.36
2018-08-31T01:32:15.964Z,39.36
2018-08-31T01:33:15.986Z,39.26
2018-08-31T01:34:15.977Z,39.16
2018-08-31T01:35:15.985Z,39.06
2018-08-31T01:36:15.990Z,39.55
2018-08-31T01:37:15.998Z,39.36
2018-08-31T01:38:16.006Z,39.36
2018-08-31T01:39:16.015Z,39.16
2018-08-31T01:40:16.021Z,39.36
2018-08-31T01:41:16.025Z,39.36
2018-08-31T01:42:16.035Z,39.36
2018-08-31T01:43:16.042Z,39.06
2018-08-31T01:44:16.049Z,39.06
2018-08-31T01:45:16.057Z,39.36
2018-08-31T01:46:16.063Z,39.26
2018-08-31T01:47:16.071Z,39.36
2018-08-31T01:48:16.079Z,38.96
2018-08-31T01:49:16.085Z,39.06
2018-08-31T01:50:16.091Z,39.16
2018-08-31T01:51:16.098Z,39.16
2018-08-31T01:52:16.108Z,39.26
2018-08-31T01:53:16.112Z,39.26
2018-08-31T01:54:16.122Z,38.78
2018-08-31T01:55:16.127Z,38.96
2018-08-31T01:56:16.133Z,39.16
2018-08-31T01:57:16.140Z,39.06
2018-08-31T01:58:16.148Z,39.45
2018-08-31T01:59:16.155Z,39.16
2018-08-31T02:00:16.169Z,39.06
2018-08-31T02:01:16.170Z,38.96
2018-08-31T02:02:16.178Z,39.06
2018-08-31T02:03:16.184Z,39.36
2018-08-31T02:04:16.256Z,38.96
2018-08-31T02:05:16.199Z,38.96
2018-08-31T02:06:16.205Z,39.06
2018-08-31T02:07:16.215Z,38.96
2018-08-31T02:08:16.221Z,39.06
2018-08-31T02:09:16.225Z,39.06
2018-08-31T02:10:16.239Z,39.06
2018-08-31T02:11:16.246Z,39.06
2018-08-31T02:12:16.248Z,39.06
2018-08-31T02:13:16.256Z,38.87
2018-08-31T02:14:16.266Z,38.96
2018-08-31T02:15:16.277Z,39.06
2018-08-31T02:16:16.285Z,39.06
2018-08-31T02:17:16.286Z,38.96
2018-08-31T02:18:16.294Z,39.16
2018-08-31T02:19:16.298Z,38.78
2018-08-31T02:20:16.305Z,38.87
2018-08-31T02:21:16.313Z,38.87
2018-08-31T02:22:16.318Z,39.06
2018-08-31T02:23:16.327Z,38.78
2018-08-31T02:24:16.336Z,39.16
2018-08-31T02:25:16.341Z,39.26
2018-08-31T02:26:16.348Z,39.16
2018-08-31T02:27:16.356Z,38.96
2018-08-31T02:28:16.362Z,39.06
2018-08-31T02:29:16.370Z,39.26
2018-08-31T02:30:16.377Z,39.16
2018-08-31T02:31:16.383Z,38.95
2018-08-31T02:32:16.391Z,39.36
2018-08-31T02:33:16.396Z,39.43
2018-08-31T02:34:16.404Z,39.34
2018-08-31T02:35:16.412Z,39.34
2018-08-31T02:36:16.419Z,39.34
2018-08-31T02:37:16.426Z,39.62
2018-08-31T02:38:16.444Z,39.82
2018-08-31T02:39:16.478Z,39.43
2018-08-31T02:40:16.447Z,39.72
2018-08-31T02:41:16.454Z,39.62
2018-08-31T02:42:16.460Z,39.53
2018-08-31T02:43:16.467Z,39.72
2018-08-31T02:44:16.476Z,39.62
2018-08-31T02:45:16.482Z,39.62
2018-08-31T02:46:16.490Z,39.62
2018-08-31T02:47:16.495Z,39.72
2018-08-31T02:48:16.503Z,39.24
2018-08-31T02:49:16.509Z,39.43
2018-08-31T02:50:16.518Z,39.43
2018-08-31T02:51:16.523Z,39.43
2018-08-31T02:52:16.532Z,39.92
2018-08-31T02:53:16.538Z,40.01
2018-08-31T02:54:16.545Z,40.11
2018-08-31T02:55:16.555Z,40.11
2018-08-31T02:56:16.558Z,39.92
2018-08-31T02:57:16.566Z,39.92
2018-08-31T02:58:16.578Z,39.82
2018-08-31T02:59:16.580Z,39.92
2018-08-31T03:00:16.586Z,39.82
2018-08-31T03:01:16.592Z,40.01
2018-08-31T03:02:16.603Z,39.92
2018-08-31T03:03:16.610Z,39.82
2018-08-31T03:04:16.614Z,39.92
2018-08-31T03:05:16.623Z,39.92
2018-08-31T03:06:16.630Z,39.92
2018-08-31T03:07:16.646Z,40.11
2018-08-31T03:08:16.646Z,39.72
2018-08-31T03:09:16.650Z,40.01
2018-08-31T03:10:16.655Z,39.82
2018-08-31T03:11:16.662Z,39.82
2018-08-31T03:12:16.670Z,40.01
2018-08-31T03:13:16.676Z,39.92
2018-08-31T03:14:16.685Z,40.01
2018-08-31T03:15:16.695Z,40.01
2018-08-31T03:16:16.704Z,39.92
2018-08-31T03:17:16.706Z,40.11
2018-08-31T03:18:16.710Z,40.21
2018-08-31T03:19:16.718Z,40.01
2018-08-31T03:20:16.724Z,40.11
2018-08-31T03:21:16.785Z,40.01
2018-08-31T03:22:16.737Z,39.82
2018-08-31T03:23:16.745Z,40.11
2018-08-31T03:24:16.752Z,39.53
2018-08-31T03:25:16.758Z,39.53
2018-08-31T03:26:16.774Z,39.62
2018-08-31T03:27:16.772Z,39.62
2018-08-31T03:28:16.780Z,39.72
2018-08-31T03:29:16.785Z,39.80
2018-08-31T03:30:16.793Z,39.53
2018-08-31T03:31:16.807Z,39.82
2018-08-31T03:32:16.807Z,40.11
2018-08-31T03:33:16.812Z,39.82
2018-08-31T03:34:16.819Z,40.00
2018-08-31T03:35:16.827Z,39.82
2018-08-31T03:36:16.836Z,40.38
2018-08-31T03:37:16.842Z,39.92
2018-08-31T03:38:16.847Z,40.50
2018-08-31T03:39:16.856Z,40.09
2018-08-31T03:40:16.862Z,40.21
2018-08-31T03:41:16.881Z,40.31
2018-08-31T03:42:16.875Z,40.31
2018-08-31T03:43:16.887Z,40.31
2018-08-31T03:44:16.891Z,40.21
2018-08-31T03:45:16.895Z,40.21
2018-08-31T03:46:16.904Z,40.21
2018-08-31T03:47:16.918Z,40.50
2018-08-31T03:48:16.916Z,40.31
2018-08-31T03:49:16.923Z,40.40
2018-08-31T03:50:16.931Z,40.40
2018-08-31T03:51:16.937Z,40.11
2018-08-31T03:52:16.944Z,40.21
2018-08-31T03:53:16.951Z,40.19
2018-08-31T03:54:16.957Z,40.40
2018-08-31T03:55:16.964Z,40.50
2018-08-31T03:56:16.981Z,40.21
2018-08-31T03:57:16.977Z,40.19
2018-08-31T03:58:16.984Z,40.40
2018-08-31T03:59:16.994Z,40.40
2018-08-31T04:00:16.998Z,40.31
2018-08-31T04:01:17.004Z,40.58
2018-08-31T04:02:17.011Z,40.59
2018-08-31T04:03:17.018Z,40.69
2018-08-31T04:04:17.026Z,40.69
2018-08-31T04:05:17.100Z,40.67
2018-08-31T04:06:17.037Z,41.06
2018-08-31T04:07:17.047Z,40.69
2018-08-31T04:08:17.052Z,40.79
2018-08-31T04:09:17.060Z,40.99
2018-08-31T04:10:17.068Z,40.86
2018-08-31T04:11:17.075Z,40.77
2018-08-31T04:12:17.080Z,40.77
2018-08-31T04:13:17.085Z,40.99
2018-08-31T04:14:17.090Z,41.06
2018-08-31T04:15:17.099Z,40.96
2018-08-31T04:16:17.106Z,40.96
2018-08-31T04:17:17.113Z,40.77
2018-08-31T04:18:17.119Z,40.86
2018-08-31T04:19:17.129Z,40.86
2018-08-31T04:20:17.150Z,40.86
2018-08-31T04:21:17.143Z,40.86
2018-08-31T04:22:17.150Z,40.86
2018-08-31T04:23:17.154Z,40.67
2018-08-31T04:24:17.167Z,40.96
2018-08-31T04:25:17.167Z,40.77
2018-08-31T04:26:17.173Z,41.06
2018-08-31T04:27:17.182Z,41.06
2018-08-31T04:28:17.188Z,41.17
2018-08-31T04:29:17.194Z,40.86
2018-08-31T04:30:17.201Z,40.96
2018-08-31T04:31:17.209Z,40.86
2018-08-31T04:32:17.215Z,41.06
2018-08-31T04:33:17.223Z,41.16
2018-08-31T04:34:17.446Z,41.16
2018-08-31T04:35:17.238Z,41.16
2018-08-31T04:36:17.251Z,41.06
2018-08-31T04:37:17.253Z,41.47
2018-08-31T04:38:17.255Z,41.45
2018-08-31T04:39:17.263Z,41.37
2018-08-31T04:40:17.270Z,41.45
2018-08-31T04:41:17.274Z,41.35
2018-08-31T04:42:17.305Z,41.74
2018-08-31T04:43:17.289Z,41.35
2018-08-31T04:44:17.297Z,41.16
2018-08-31T04:45:17.303Z,41.55
2018-08-31T04:46:17.309Z,41.45
2018-08-31T04:47:17.321Z,41.56
2018-08-31T04:48:17.324Z,41.56
2018-08-31T04:49:17.330Z,41.55
2018-08-31T04:50:17.351Z,41.93
2018-08-31T04:51:17.355Z,41.83
2018-08-31T04:52:17.355Z,42.03
2018-08-31T04:53:17.357Z,41.86
2018-08-31T04:54:17.364Z,42.03
2018-08-31T04:55:17.371Z,41.83
2018-08-31T04:56:17.378Z,41.55
2018-08-31T04:57:17.384Z,41.74
2018-08-31T04:58:17.390Z,41.74
2018-08-31T04:59:17.399Z,42.13
2018-08-31T05:00:17.405Z,42.13
2018-08-31T05:01:17.409Z,42.13
2018-08-31T05:02:17.426Z,41.93
2018-08-31T05:03:17.425Z,41.74
2018-08-31T05:04:17.431Z,42.13
2018-08-31T05:05:17.436Z,41.74
2018-08-31T05:06:17.450Z,41.83
2018-08-31T05:07:17.452Z,41.74
2018-08-31T05:08:17.459Z,41.93
2018-08-31T05:09:17.463Z,42.13
2018-08-31T05:10:17.475Z,42.13
2018-08-31T05:11:17.485Z,42.13
2018-08-31T05:12:17.487Z,42.51
2018-08-31T05:13:17.493Z,42.22
2018-08-31T05:14:17.499Z,42.22
2018-08-31T05:15:17.508Z,42.51
2018-08-31T05:16:17.520Z,42.61
2018-08-31T05:17:17.519Z,42.61
2018-08-31T05:18:17.525Z,42.51
2018-08-31T05:19:17.533Z,42.51
2018-08-31T05:20:17.540Z,42.41
2018-08-31T05:21:17.546Z,42.41
2018-08-31T05:22:17.634Z,42.41
2018-08-31T05:23:17.561Z,42.51
2018-08-31T05:24:17.567Z,42.22
2018-08-31T05:25:17.573Z,42.41
2018-08-31T05:26:17.580Z,42.41
2018-08-31T05:27:17.590Z,42.41
2018-08-31T05:28:17.619Z,42.22
2018-08-31T05:29:17.600Z,42.22
2018-08-31T05:30:17.607Z,42.22
2018-08-31T05:31:17.614Z,42.32
2018-08-31T05:32:17.622Z,42.32
2018-08-31T05:33:17.627Z,42.32
2018-08-31T05:34:17.635Z,42.41
2018-08-31T05:35:17.642Z,42.80
2018-08-31T05:36:17.649Z,42.90
2018-08-31T05:37:17.656Z,42.61
2018-08-31T05:38:17.661Z,42.61
2018-08-31T05:39:17.668Z,42.61
2018-08-31T05:40:17.676Z,42.71
2018-08-31T05:41:17.682Z,42.51
2018-08-31T05:42:17.689Z,42.41
2018-08-31T05:43:17.695Z,42.51
2018-08-31T05:44:17.707Z,42.51
2018-08-31T05:45:17.708Z,42.61
2018-08-31T05:46:17.717Z,42.51
2018-08-31T05:47:17.722Z,42.51
2018-08-31T05:48:17.731Z,42.22
2018-08-31T05:49:17.735Z,42.22
2018-08-31T05:50:17.743Z,42.32
2018-08-31T05:51:17.753Z,42.32
2018-08-31T05:52:17.756Z,42.32
2018-08-31T05:53:17.761Z,42.32
2018-08-31T05:54:17.769Z,42.32
2018-08-31T05:55:17.777Z,42.32
2018-08-31T05:56:17.784Z,42.32
2018-08-31T05:57:17.790Z,42.41
2018-08-31T05:58:17.796Z,42.41
2018-08-31T05:59:17.803Z,42.41
2018-08-31T06:00:17.815Z,42.41
2018-08-31T06:01:17.818Z,42.32
2018-08-31T06:02:17.861Z,42.41
2018-08-31T06:03:17.831Z,42.41
2018-08-31T06:04:17.837Z,42.32
2018-08-31T06:05:17.841Z,42.32
2018-08-31T06:06:17.850Z,42.32
2018-08-31T06:07:17.855Z,42.32
2018-08-31T06:08:17.864Z,42.51
2018-08-31T06:09:17.871Z,42.41
2018-08-31T06:10:17.878Z,42.41
2018-08-31T06:11:17.886Z,42.41
2018-08-31T06:12:17.895Z,42.22
2018-08-31T06:13:17.899Z,42.41
2018-08-31T06:14:17.905Z,42.51
2018-08-31T06:15:17.915Z,42.41
2018-08-31T06:16:17.919Z,42.41
2018-08-31T06:17:17.925Z,42.41
2018-08-31T06:18:17.930Z,42.41
2018-08-31T06:19:17.938Z,42.51
2018-08-31T06:20:17.944Z,42.32
2018-08-31T06:21:17.954Z,42.41
2018-08-31T06:22:17.964Z,42.32
2018-08-31T06:23:17.968Z,42.32
2018-08-31T06:24:18.061Z,42.32
2018-08-31T06:25:17.977Z,42.32
2018-08-31T06:26:17.985Z,42.32
2018-08-31T06:27:18.156Z,42.32
2018-08-31T06:28:17.998Z,42.22
2018-08-31T06:29:18.094Z,42.51
2018-08-31T06:30:18.011Z,42.51
2018-08-31T06:31:18.019Z,42.41
2018-08-31T06:32:18.026Z,42.32
2018-08-31T06:33:18.032Z,42.61
2018-08-31T06:34:18.091Z,42.32
2018-08-31T06:35:18.114Z,42.61
2018-08-31T06:36:18.055Z,42.51
2018-08-31T06:37:18.059Z,42.22
2018-08-31T06:38:18.065Z,42.32
2018-08-31T06:39:18.123Z,42.32
2018-08-31T06:40:18.079Z,43.09
2018-08-31T06:41:18.089Z,42.71
2018-08-31T06:42:18.092Z,42.32
2018-08-31T06:43:18.102Z,42.41
2018-08-31T06:44:18.107Z,42.32
2018-08-31T06:45:18.118Z,42.51
2018-08-31T06:46:18.118Z,42.71
2018-08-31T06:47:18.127Z,42.61
2018-08-31T06:48:18.134Z,42.61
2018-08-31T06:49:18.140Z,42.13
2018-08-31T06:50:18.146Z,42.51
2018-08-31T06:51:18.171Z,42.51
2018-08-31T06:52:18.162Z,42.61
2018-08-31T06:53:18.166Z,42.61
2018-08-31T06:54:18.173Z,42.41
2018-08-31T06:55:18.181Z,42.61
2018-08-31T06:56:18.188Z,42.61
2018-08-31T06:57:18.193Z,42.61
2018-08-31T06:58:18.202Z,42.71
2018-08-31T06:59:18.207Z,42.61
2018-08-31T07:00:18.236Z,42.41
2018-08-31T07:01:18.216Z,42.61
2018-08-31T07:02:18.226Z,42.71
2018-08-31T07:03:18.235Z,42.51
2018-08-31T07:04:18.241Z,42.61
2018-08-31T07:05:18.249Z,42.61
2018-08-31T07:06:18.258Z,42.61
2018-08-31T07:07:18.260Z,42.61
2018-08-31T07:08:18.268Z,42.71
2018-08-31T07:09:18.275Z,42.61
2018-08-31T07:10:18.284Z,42.61
2018-08-31T07:11:18.294Z,42.61
2018-08-31T07:12:18.371Z,42.51
2018-08-31T07:13:18.302Z,42.61
2018-08-31T07:14:18.309Z,42.41
2018-08-31T07:15:18.314Z,42.80
2018-08-31T07:16:18.322Z,42.80
2018-08-31T07:17:18.328Z,42.61
2018-08-31T07:18:18.334Z,42.51
2018-08-31T07:19:18.406Z,42.61
2018-08-31T07:20:18.350Z,42.51
2018-08-31T07:21:18.354Z,42.71
2018-08-31T07:22:18.362Z,42.90
2018-08-31T07:23:18.369Z,42.51
2018-08-31T07:24:18.378Z,42.51
2018-08-31T07:25:18.383Z,42.61
2018-08-31T07:26:18.449Z,42.61
2018-08-31T07:27:18.398Z,42.71
2018-08-31T07:28:18.403Z,42.41
2018-08-31T07:29:18.413Z,42.61
2018-08-31T07:30:18.415Z,42.41
2018-08-31T07:31:18.423Z,42.51
2018-08-31T07:32:18.480Z,42.71
2018-08-31T07:33:18.435Z,42.71
2018-08-31T07:34:18.447Z,42.80
2018-08-31T07:35:18.452Z,42.61
2018-08-31T07:36:18.565Z,42.32
2018-08-31T07:37:18.461Z,42.71
2018-08-31T07:38:18.469Z,42.51
2018-08-31T07:39:18.477Z,42.51
2018-08-31T07:40:18.485Z,42.51
2018-08-31T07:41:18.490Z,42.71
2018-08-31T07:42:18.549Z,42.61
2018-08-31T07:43:18.504Z,42.61
2018-08-31T07:44:18.513Z,42.32
2018-08-31T07:45:18.517Z,42.51
2018-08-31T07:46:18.524Z,42.41
2018-08-31T07:47:18.534Z,42.41
2018-08-31T07:48:18.537Z,42.32
2018-08-31T07:49:18.548Z,42.32
2018-08-31T07:50:18.554Z,42.41
2018-08-31T07:51:18.557Z,42.22
2018-08-31T07:52:18.564Z,42.51
2018-08-31T07:53:18.570Z,42.61
2018-08-31T07:54:18.577Z,42.41
2018-08-31T07:55:18.596Z,42.51
2018-08-31T07:56:18.594Z,42.61
2018-08-31T07:57:18.597Z,42.51
2018-08-31T07:58:18.605Z,43.00
2018-08-31T07:59:18.624Z,43.00
2018-08-31T08:00:18.618Z,43.00
2018-08-31T08:01:18.625Z,43.00
2018-08-31T08:02:18.632Z,42.90
2018-08-31T08:03:18.640Z,42.90
2018-08-31T08:04:18.647Z,43.00
2018-08-31T08:05:18.652Z,42.80
2018-08-31T08:06:18.658Z,42.80
2018-08-31T08:07:18.677Z,42.90
2018-08-31T08:08:18.672Z,42.90
2018-08-31T08:09:18.679Z,42.90
2018-08-31T08:10:18.686Z,43.00
2018-08-31T08:11:18.701Z,42.71
2018-08-31T08:12:18.699Z,42.80
2018-08-31T08:13:18.705Z,42.71
2018-08-31T08:14:18.714Z,42.71
2018-08-31T08:15:18.720Z,42.80
2018-08-31T08:16:18.744Z,42.71
2018-08-31T08:17:18.734Z,42.71
2018-08-31T08:18:18.739Z,43.09
2018-08-31T08:19:18.746Z,42.71
2018-08-31T08:20:18.753Z,42.90
2018-08-31T08:21:18.759Z,42.80
2018-08-31T08:22:18.766Z,42.61
2018-08-31T08:23:18.773Z,43.19
2018-08-31T08:24:18.784Z,43.29
2018-08-31T08:25:18.787Z,43.19
2018-08-31T08:26:18.800Z,43.38
2018-08-31T08:27:18.802Z,43.50
2018-08-31T08:28:18.877Z,43.38
2018-08-31T08:29:18.813Z,43.19
2018-08-31T08:30:18.822Z,43.12
2018-08-31T08:31:18.828Z,43.09
2018-08-31T08:32:18.834Z,43.09
2018-08-31T08:33:18.841Z,43.12
2018-08-31T08:34:18.850Z,43.12
2018-08-31T08:35:18.854Z,43.02
2018-08-31T08:36:18.865Z,43.12
2018-08-31T08:37:18.867Z,42.82
2018-08-31T08:38:18.874Z,43.09
2018-08-31T08:39:18.889Z,42.92
2018-08-31T08:40:18.889Z,42.82
2018-08-31T08:41:18.898Z,42.72
2018-08-31T08:42:18.945Z,42.72
2018-08-31T08:43:18.911Z,42.82
2018-08-31T08:44:18.915Z,43.02
2018-08-31T08:45:18.925Z,42.54
2018-08-31T08:46:18.971Z,42.44
2018-08-31T08:47:18.936Z,42.54
2018-08-31T08:48:19.032Z,42.34
2018-08-31T08:49:18.957Z,42.44
2018-08-31T08:50:18.958Z,42.63
2018-08-31T08:51:18.964Z,42.72
2018-08-31T08:52:18.971Z,42.54
2018-08-31T08:53:18.977Z,42.63
2018-08-31T08:54:18.986Z,42.54
2018-08-31T08:55:18.991Z,42.34
2018-08-31T08:56:18.998Z,42.05
2018-08-31T08:57:19.004Z,42.44
2018-08-31T08:58:19.067Z,42.34
2018-08-31T08:59:19.019Z,42.44
2018-08-31T09:00:19.027Z,42.34
2018-08-31T09:01:19.034Z,42.63
2018-08-31T09:02:19.039Z,42.54
2018-08-31T09:03:19.048Z,42.44
2018-08-31T09:04:19.054Z,42.26
2018-08-31T09:05:19.059Z,42.75
2018-08-31T09:06:19.069Z,42.63
2018-08-31T09:07:19.075Z,42.24
2018-08-31T09:08:19.081Z,42.55
2018-08-31T09:09:19.088Z,42.54
2018-08-31T09:10:19.094Z,42.75
2018-08-31T09:11:19.104Z,42.65
2018-08-31T09:12:19.119Z,42.75
2018-08-31T09:13:19.115Z,42.54
2018-08-31T09:14:19.127Z,42.26
2018-08-31T09:15:19.132Z,42.65
2018-08-31T09:16:19.138Z,42.55
2018-08-31T09:17:19.144Z,42.24
2018-08-31T09:18:19.268Z,42.65
2018-08-31T09:19:19.158Z,42.55
2018-08-31T09:20:19.258Z,42.44
2018-08-31T09:21:19.172Z,42.26
2018-08-31T09:22:19.182Z,42.54
2018-08-31T09:23:19.186Z,42.46
2018-08-31T09:24:19.196Z,42.44
2018-08-31T09:25:19.200Z,42.26
2018-08-31T09:26:19.210Z,42.44
2018-08-31T09:27:19.214Z,42.05
2018-08-31T09:28:19.223Z,42.24
2018-08-31T09:29:19.227Z,42.34
2018-08-31T09:30:19.235Z,42.34
2018-08-31T09:31:19.241Z,42.54
2018-08-31T09:32:19.248Z,42.63
2018-08-31T09:33:19.256Z,42.63
2018-08-31T09:34:19.286Z,42.63
2018-08-31T09:35:19.278Z,42.54
2018-08-31T09:36:19.279Z,42.54
2018-08-31T09:37:19.286Z,42.63
2018-08-31T09:38:19.314Z,42.63
2018-08-31T09:39:19.298Z,42.54
2018-08-31T09:40:19.305Z,42.44
2018-08-31T09:41:19.313Z,42.34
2018-08-31T09:42:19.325Z,42.34
2018-08-31T09:43:19.328Z,42.44
2018-08-31T09:44:19.334Z,42.54
2018-08-31T09:45:19.340Z,42.72
2018-08-31T09:46:19.350Z,42.63
2018-08-31T09:47:19.354Z,43.12
2018-08-31T09:48:19.361Z,43.02
2018-08-31T09:49:19.366Z,43.02
2018-08-31T09:50:19.375Z,43.02
2018-08-31T09:51:19.385Z,42.72
2018-08-31T09:52:19.393Z,42.72
2018-08-31T09:53:19.395Z,42.82
2018-08-31T09:54:19.404Z,42.82
2018-08-31T09:55:19.414Z,42.92
2018-08-31T09:56:19.470Z,43.12
2018-08-31T09:57:19.494Z,42.92
2018-08-31T09:58:19.469Z,43.50
2018-08-31T09:59:19.439Z,43.12
2018-08-31T10:00:19.449Z,43.21
2018-08-31T10:01:19.451Z,43.21
2018-08-31T10:02:19.459Z,43.12
2018-08-31T10:03:19.466Z,43.12
2018-08-31T10:04:19.473Z,43.12
2018-08-31T10:05:19.482Z,43.02
2018-08-31T10:06:19.485Z,43.41
2018-08-31T10:07:19.497Z,43.50
2018-08-31T10:08:19.506Z,43.60
2018-08-31T10:09:19.505Z,43.31
2018-08-31T10:10:19.520Z,43.58
2018-08-31T10:11:19.539Z,43.70
2018-08-31T10:12:19.527Z,43.70
2018-08-31T10:13:19.540Z,43.77
2018-08-31T10:14:19.540Z,43.79
2018-08-31T10:15:19.547Z,43.89
2018-08-31T10:16:19.559Z,43.89
2018-08-31T10:17:19.562Z,43.89
2018-08-31T10:18:19.571Z,43.79
2018-08-31T10:19:19.576Z,43.58
2018-08-31T10:20:19.581Z,43.70
2018-08-31T10:21:19.590Z,43.77
2018-08-31T10:22:19.595Z,43.79
2018-08-31T10:23:19.602Z,43.79
2018-08-31T10:24:19.610Z,43.70
2018-08-31T10:25:19.615Z,43.70
2018-08-31T10:26:19.675Z,43.99
2018-08-31T10:27:19.632Z,43.89
2018-08-31T10:28:19.636Z,44.09
2018-08-31T10:29:19.649Z,44.27
2018-08-31T10:30:19.706Z,44.18
2018-08-31T10:31:19.657Z,44.27
2018-08-31T10:32:19.664Z,44.47
2018-08-31T10:33:19.671Z,44.09
2018-08-31T10:34:19.677Z,44.09
2018-08-31T10:35:19.684Z,44.18
2018-08-31T10:36:19.693Z,44.09
2018-08-31T10:37:19.701Z,44.09
2018-08-31T10:38:19.705Z,43.99
2018-08-31T10:39:19.713Z,44.18
2018-08-31T10:40:19.736Z,43.96
2018-08-31T10:41:19.725Z,44.27
2018-08-31T10:42:19.732Z,44.16
2018-08-31T10:43:19.746Z,44.57
2018-08-31T10:44:19.747Z,44.18
2018-08-31T10:45:19.756Z,44.27
2018-08-31T10:46:19.791Z,44.18
2018-08-31T10:47:19.765Z,44.47
2018-08-31T10:48:19.773Z,44.37
2018-08-31T10:49:19.782Z,44.27
2018-08-31T10:50:19.794Z,44.27
2018-08-31T10:51:19.800Z,44.37
2018-08-31T10:52:19.801Z,44.26
2018-08-31T10:53:19.809Z,44.16
2018-08-31T10:54:19.816Z,44.37
2018-08-31T10:55:19.822Z,44.26
2018-08-31T10:56:19.835Z,44.27
2018-08-31T10:57:19.835Z,44.27
2018-08-31T10:58:19.841Z,44.37
2018-08-31T10:59:19.888Z,44.37
2018-08-31T11:00:19.867Z,44.27
2018-08-31T11:01:19.864Z,44.37
2018-08-31T11:02:19.868Z,44.37
2018-08-31T11:03:19.877Z,44.27
2018-08-31T11:04:19.884Z,44.47
2018-08-31T11:05:19.894Z,44.27
2018-08-31T11:06:19.899Z,44.37
2018-08-31T11:07:19.902Z,44.18
2018-08-31T11:08:19.910Z,44.18
2018-08-31T11:09:19.920Z,44.37
2018-08-31T11:10:19.925Z,44.57
2018-08-31T11:11:19.935Z,44.18
2018-08-31T11:12:19.938Z,44.18
2018-08-31T11:13:19.951Z,44.16
2018-08-31T11:14:19.952Z,44.35
2018-08-31T11:15:20.063Z,44.37
2018-08-31T11:16:19.965Z,44.37
2018-08-31T11:17:19.972Z,44.26
2018-08-31T11:18:19.983Z,44.47
2018-08-31T11:19:19.987Z,44.37
2018-08-31T11:20:19.992Z,44.35
2018-08-31T11:21:19.999Z,44.37
2018-08-31T11:22:20.009Z,44.27
2018-08-31T11:23:20.017Z,44.18
2018-08-31T11:24:20.049Z,44.27
2018-08-31T11:25:20.027Z,44.37
2018-08-31T11:26:20.034Z,44.26
2018-08-31T11:27:20.040Z,44.26
2018-08-31T11:28:20.047Z,44.37
2018-08-31T11:29:20.053Z,44.37
2018-08-31T11:30:20.063Z,44.18
2018-08-31T11:31:20.069Z,44.27
2018-08-31T11:32:20.074Z,44.27
2018-08-31T11:33:20.082Z,44.16
2018-08-31T11:34:20.089Z,44.26
2018-08-31T11:35:20.095Z,44.18
2018-08-31T11:36:20.103Z,44.37
2018-08-31T11:37:20.108Z,44.27
2018-08-31T11:38:20.116Z,44.27
2018-08-31T11:39:20.122Z,44.27
2018-08-31T11:40:20.130Z,44.27
2018-08-31T11:41:20.133Z,44.37
2018-08-31T11:42:20.142Z,44.09
2018-08-31T11:43:20.185Z,44.27
2018-08-31T11:44:20.157Z,44.27
2018-08-31T11:45:20.162Z,44.37
2018-08-31T11:46:20.170Z,44.37
2018-08-31T11:47:20.177Z,44.37
2018-08-31T11:48:20.184Z,44.27
2018-08-31T11:49:20.190Z,44.27
2018-08-31T11:50:20.196Z,44.47
2018-08-31T11:51:20.204Z,44.27
2018-08-31T11:52:20.211Z,44.18
2018-08-31T11:53:20.217Z,44.18
2018-08-31T11:54:20.231Z,44.37
2018-08-31T11:55:20.269Z,44.27
2018-08-31T11:56:20.238Z,44.27
2018-08-31T11:57:20.245Z,44.37
2018-08-31T11:58:20.258Z,44.09
2018-08-31T11:59:20.259Z,44.18
2018-08-31T12:00:20.280Z,44.09
2018-08-31T12:01:20.284Z,44.47
2018-08-31T12:02:20.280Z,44.37
2018-08-31T12:03:20.286Z,43.89
2018-08-31T12:04:20.295Z,43.79
2018-08-31T12:05:20.300Z,44.09
2018-08-31T12:06:20.308Z,44.27
2018-08-31T12:07:20.316Z,44.57
2018-08-31T12:08:20.322Z,44.37
2018-08-31T12:09:20.328Z,44.27
2018-08-31T12:10:20.334Z,44.27
2018-08-31T12:11:20.341Z,44.27
2018-08-31T12:12:20.348Z,44.47
2018-08-31T12:13:20.355Z,44.27
2018-08-31T12:14:20.362Z,44.37
2018-08-31T12:15:20.375Z,44.10
2018-08-31T12:16:20.377Z,44.40
2018-08-31T12:17:20.384Z,44.09
2018-08-31T12:18:20.390Z,44.10
2018-08-31T12:19:20.399Z,44.30
2018-08-31T12:20:20.405Z,44.01
2018-08-31T12:21:20.412Z,44.40
2018-08-31T12:22:20.416Z,44.40
2018-08-31T12:23:20.424Z,44.20
2018-08-31T12:24:20.433Z,43.52
2018-08-31T12:25:20.440Z,44.01
2018-08-31T12:26:20.445Z,43.82
2018-08-31T12:27:20.453Z,43.82
2018-08-31T12:28:20.461Z,43.91
2018-08-31T12:29:20.468Z,43.91
2018-08-31T12:30:20.475Z,43.82
2018-08-31T12:31:20.485Z,43.82
2018-08-31T12:32:20.494Z,43.82
2018-08-31T12:33:20.495Z,43.91
2018-08-31T12:34:20.503Z,44.10
2018-08-31T12:35:20.509Z,43.82
2018-08-31T12:36:20.518Z,43.91
2018-08-31T12:37:20.524Z,44.01
2018-08-31T12:38:20.531Z,43.72
2018-08-31T12:39:20.539Z,43.62
2018-08-31T12:40:20.551Z,43.62
2018-08-31T12:41:20.557Z,44.30
2018-08-31T12:42:20.562Z,44.10
2018-08-31T12:43:20.567Z,44.01
2018-08-31T12:44:20.677Z,44.10
2018-08-31T12:45:20.581Z,44.20
2018-08-31T12:46:20.589Z,44.30
2018-08-31T12:47:20.598Z,44.40
2018-08-31T12:48:20.603Z,44.30
2018-08-31T12:49:20.609Z,44.30
2018-08-31T12:50:20.620Z,44.30
2018-08-31T12:51:20.625Z,44.30
2018-08-31T12:52:20.631Z,44.20